»·PEaware :: USC243 KWRL-KBLH

USC243 :: KWRL-KBLH

FLIGHT INFORMATION

Flight Status: Arrived
Operator: Unknown
More flights by this operator :: More flights under this callsign
Pilot: Andy P. (22680)
Aircraft: GATES LEARJET LEARJET 35/36
(LJ35)
More flights by this aircraft type
Origin: KWRL Worland Mun
United States
Destination: KBLH Blythe
United States
More flights between these airports :: More routes between these airports
Route: +RLY BOY J713 TCH J11 BCE PGS EED
File this flight plan on PilotEdge
Remarks:
Altitude:
(Current/Filed)
43,000ft
Speed:
(Current/Filed)
465kts
Departed: 21-Mar-19 10:22 AM
Arrived: 21-Mar-19 12:11 PM
Distance/Time
Traveled:
696nm/1:49
Distance/Time
To Go:
Arrived

Flight Plot

Page will automatically refresh every two minutes.

Flight plan parsing failed; only flown route is shown


Map Options




Map Legend


Flown Route
Filed Route
Departure Airport
Arrival Airport
Navaid (VOR, NDB)
Fix

Horizontal Profiles

Position Reports

Time Latitude Longitude Heading Altitude Ground
Speed
21-Mar-19 10:01 43.971250 -107.951414 85 4229ft 0kts
21-Mar-19 10:02 43.971250 -107.951414 85 4229ft 0kts
21-Mar-19 10:03 43.971250 -107.951414 85 4229ft 0kts
21-Mar-19 10:04 43.971250 -107.951414 85 4229ft 0kts
21-Mar-19 10:05 43.971250 -107.951414 85 4229ft 0kts
21-Mar-19 10:06 43.971250 -107.951414 85 4229ft 0kts
21-Mar-19 10:07 43.971250 -107.951414 85 4229ft 0kts
21-Mar-19 10:08 43.971250 -107.951414 85 4229ft 0kts
21-Mar-19 10:09 43.971250 -107.951414 85 4229ft 0kts
21-Mar-19 10:10 43.971250 -107.951414 85 4229ft 0kts
21-Mar-19 10:11 43.971250 -107.951414 85 4229ft 0kts
21-Mar-19 10:12 43.971250 -107.951414 85 4229ft 0kts
21-Mar-19 10:13 43.971250 -107.951414 85 4229ft 0kts
21-Mar-19 10:14 43.971250 -107.951414 85 4229ft 0kts
21-Mar-19 10:15 43.971250 -107.951414 85 4229ft 0kts
21-Mar-19 10:16 43.971250 -107.951413 85 4229ft 0kts
21-Mar-19 10:17 43.972812 -107.952486 0 4229ft 18kts
21-Mar-19 10:18 43.976047 -107.953497 264 4229ft 0kts
21-Mar-19 10:19 43.976047 -107.953498 264 4229ft 0kts
21-Mar-19 10:20 43.976019 -107.953922 261 4229ft 7kts
21-Mar-19 10:21 43.946209 -107.951425 178 5225ft 185kts
21-Mar-19 10:22 43.940286 -107.992155 10 8796ft 199kts
21-Mar-19 10:23 43.920897 -107.972559 221 12080ft 226kts
21-Mar-19 10:24 43.861105 -108.026501 202 15514ft 285kts
21-Mar-19 10:25 43.777813 -108.082015 207 17994ft 372kts
21-Mar-19 10:26 43.678572 -108.150502 201 20480ft 428kts
21-Mar-19 10:27 43.568706 -108.227209 204 23228ft 449kts
21-Mar-19 10:28 43.459697 -108.315711 222 25511ft 466kts
21-Mar-19 10:29 43.385713 -108.464369 234 27447ft 473kts
21-Mar-19 10:30 43.313940 -108.613699 234 29739ft 462kts
21-Mar-19 10:31 43.244107 -108.759056 233 32029ft 449kts
21-Mar-19 10:32 43.176065 -108.900124 233 33917ft 442kts
21-Mar-19 10:33 43.108278 -109.040024 233 35428ft 439kts
21-Mar-19 10:35 43.040672 -109.178915 232 36791ft 437kts
21-Mar-19 10:36 42.973337 -109.316602 232 38018ft 435kts
21-Mar-19 10:37 42.883635 -109.415228 199 39072ft 419kts
21-Mar-19 10:38 42.774991 -109.474622 200 39947ft 421kts
21-Mar-19 10:39 42.667327 -109.538270 202 40710ft 424kts
21-Mar-19 10:40 42.559410 -109.602960 202 41421ft 426kts
21-Mar-19 10:41 42.450762 -109.668052 202 42107ft 427kts
21-Mar-19 10:42 42.341694 -109.733180 202 42715ft 429kts
21-Mar-19 10:43 42.232368 -109.798220 202 43159ft 433kts
21-Mar-19 10:44 42.120158 -109.864722 202 43167ft 447kts
21-Mar-19 10:45 42.006012 -109.932112 202 43161ft 447kts
21-Mar-19 10:46 41.892502 -109.998858 202 43154ft 444kts
21-Mar-19 10:47 41.779430 -110.065089 202 43150ft 443kts
21-Mar-19 10:48 41.666197 -110.131155 202 43150ft 445kts
21-Mar-19 10:49 41.552128 -110.197454 202 43151ft 448kts
21-Mar-19 10:50 41.437464 -110.263840 202 43156ft 449kts
21-Mar-19 10:51 41.322294 -110.330260 202 43159ft 450kts
21-Mar-19 10:52 41.207396 -110.396268 202 43159ft 450kts
21-Mar-19 10:52 41.111716 -110.451042 202 43159ft 450kts
21-Mar-19 10:54 40.977525 -110.527572 202 43159ft 449kts
21-Mar-19 10:55 40.862967 -110.592630 202 43159ft 449kts
21-Mar-19 10:55 40.767074 -110.646901 202 43160ft 449kts
21-Mar-19 10:57 40.632970 -110.722513 202 43160ft 449kts
21-Mar-19 10:57 40.537306 -110.776247 202 43116ft 449kts
21-Mar-19 10:58 40.422776 -110.840359 202 43106ft 448kts
21-Mar-19 11:00 40.288853 -110.915025 202 43106ft 447kts
21-Mar-19 11:00 40.193454 -110.968019 202 43092ft 447kts
21-Mar-19 11:01 40.078875 -111.031445 202 43083ft 447kts
21-Mar-19 11:02 39.964169 -111.094711 202 43083ft 447kts
21-Mar-19 11:03 39.849452 -111.157754 202 43085ft 447kts
21-Mar-19 11:04 39.734859 -111.220498 202 43086ft 447kts
21-Mar-19 11:05 39.620035 -111.283142 202 43086ft 448kts
21-Mar-19 11:06 39.505172 -111.345580 202 43086ft 448kts
21-Mar-19 11:07 39.389934 -111.407997 202 43086ft 448kts
21-Mar-19 11:08 39.274944 -111.470055 202 43100ft 448kts
21-Mar-19 11:09 39.159426 -111.532175 202 43070ft 449kts
21-Mar-19 11:10 39.044072 -111.593987 202 43068ft 449kts
21-Mar-19 11:11 38.928898 -111.655482 202 43068ft 448kts
21-Mar-19 11:12 38.813816 -111.716712 202 43068ft 447kts
21-Mar-19 11:13 38.698722 -111.777733 202 43068ft 447kts
21-Mar-19 11:14 38.583451 -111.838637 202 43068ft 447kts
21-Mar-19 11:15 38.468292 -111.899264 202 43068ft 448kts
21-Mar-19 11:16 38.353141 -111.959681 202 43047ft 448kts
21-Mar-19 11:17 38.237622 -112.020080 202 43047ft 448kts
21-Mar-19 11:18 38.122303 -112.080168 202 43047ft 448kts
21-Mar-19 11:19 38.006425 -112.140339 202 43047ft 448kts
21-Mar-19 11:20 37.890943 -112.200100 202 43047ft 448kts
21-Mar-19 11:21 37.775330 -112.259725 202 43047ft 449kts
21-Mar-19 11:22 37.659871 -112.319981 205 43047ft 449kts
21-Mar-19 11:23 37.548230 -112.390410 207 43047ft 449kts
21-Mar-19 11:24 37.436077 -112.460076 207 43050ft 449kts
21-Mar-19 11:25 37.323930 -112.529008 207 43064ft 449kts
21-Mar-19 11:26 37.211599 -112.597730 207 43089ft 449kts
21-Mar-19 11:27 37.099350 -112.666155 207 43094ft 449kts
21-Mar-19 11:28 36.986851 -112.734504 207 43096ft 449kts
21-Mar-19 11:29 36.874178 -112.802732 207 43107ft 449kts
21-Mar-19 11:30 36.761450 -112.870766 207 43107ft 449kts
21-Mar-19 11:31 36.648905 -112.938467 207 43107ft 449kts
21-Mar-19 11:32 36.536453 -113.005889 207 43107ft 450kts
21-Mar-19 11:33 36.423858 -113.073179 207 43107ft 450kts
21-Mar-19 11:34 36.310512 -113.140698 207 43107ft 450kts
21-Mar-19 11:35 36.197843 -113.207597 207 43107ft 450kts
21-Mar-19 11:36 36.084396 -113.274743 207 43108ft 450kts
21-Mar-19 11:37 35.971585 -113.341293 208 43108ft 451kts
21-Mar-19 11:38 35.858085 -113.408041 208 43108ft 450kts
21-Mar-19 11:39 35.743582 -113.475177 208 41721ft 462kts
21-Mar-19 11:40 35.632398 -113.543554 215 39811ft 429kts
21-Mar-19 11:41 35.541575 -113.635875 223 37990ft 413kts
21-Mar-19 11:42 35.455512 -113.730027 223 36016ft 414kts
21-Mar-19 11:43 35.369009 -113.824381 223 34173ft 417kts
21-Mar-19 11:44 35.281864 -113.919143 223 32324ft 420kts
21-Mar-19 11:45 35.193416 -114.015033 224 30408ft 427kts
21-Mar-19 11:46 35.104327 -114.111317 224 28515ft 428kts
21-Mar-19 11:47 35.015134 -114.207412 224 26594ft 425kts
21-Mar-19 11:48 34.927031 -114.302046 224 24705ft 419kts
21-Mar-19 11:49 34.839498 -114.395823 224 22714ft 422kts
21-Mar-19 11:50 34.744954 -114.477073 203 20714ft 425kts
21-Mar-19 11:51 34.629899 -114.500835 196 18719ft 409kts
21-Mar-19 11:52 34.518399 -114.526681 194 16722ft 406kts
21-Mar-19 11:53 34.408522 -114.550462 193 14715ft 397kts
21-Mar-19 11:54 34.301834 -114.573193 192 12698ft 379kts
21-Mar-19 11:55 34.209661 -114.592684 191 10670ft 305kts
21-Mar-19 11:56 34.130873 -114.612356 197 8655ft 278kts
21-Mar-19 11:57 34.061138 -114.641998 198 8004ft 246kts
21-Mar-19 11:58 33.995937 -114.668355 198 8020ft 261kts
21-Mar-19 11:59 33.923546 -114.697170 197 8012ft 282kts
21-Mar-19 12:00 33.855246 -114.672541 131 8008ft 263kts
21-Mar-19 12:01 33.823787 -114.595069 116 7851ft 260kts
21-Mar-19 12:02 33.793126 -114.514730 115 6297ft 257kts
21-Mar-19 12:03 33.739525 -114.474270 187 5006ft 230kts
21-Mar-19 12:04 33.679220 -114.480271 185 3970ft 205kts
21-Mar-19 12:05 33.645501 -114.518448 256 3514ft 158kts
21-Mar-19 12:06 33.636961 -114.574846 256 2604ft 182kts
21-Mar-19 12:07 33.627018 -114.633026 257 1673ft 150kts
21-Mar-19 12:08 33.619585 -114.678884 256 898ft 138kts
21-Mar-19 12:09 33.616523 -114.718839 270 400ft 55kts
21-Mar-19 12:10 33.615180 -114.721772 87 400ft 12kts
21-Mar-19 12:11 33.614668 -114.712631 118 400ft 8kts
21-Mar-19 12:12 33.614350 -114.712220 180 400ft 0kts

Navigation Log

Ident Type
Flight plan parsing failed, navigation log unavailable